Time;durP1;ratioP1;P1;durP2;ratioP2;P2;SDS_P1;SDS_P2;PMS_P1;PMS_P2;Temp;Humidity;BMP_temperature;BMP_pressure;BME280_temperature;BME280_humidity;BME280_pressure;Samples;Min_cycle;Max_cycle;Signal;HPM_P1;HPM_P2
2021/11/30 00:01:29;;;;;;;9.10;6.40;;;;;;;9.61;66.12;97185.10;24391;1367;3027018;-71
2021/11/30 00:03:59;;;;;;;8.60;6.20;;;;;;;9.35;66.80;97197.23;24348;1361;3026882;-71
2021/11/30 00:06:28;;;;;;;6.80;5.40;;;;;;;9.26;66.81;97202.95;24376;1360;3027114;-69
2021/11/30 00:09:20;;;;;;;8.30;5.80;;;;;;;8.81;67.66;97206.42;24214;1363;3026722;-68
2021/11/30 00:11:52;;;;;;;9.90;5.80;;;;;;;8.65;68.09;97211.37;24414;1358;3057463;-72
2021/11/30 00:14:21;;;;;;;7.90;5.90;;;;;;;8.75;67.72;97223.85;24416;1363;3028205;-69
2021/11/30 00:16:50;;;;;;;8.00;5.10;;;;;;;8.76;67.80;97224.89;24411;1361;3051598;-70
2021/11/30 00:19:19;;;;;;;8.10;5.50;;;;;;;8.71;67.83;97223.75;24464;1360;3026563;-69
2021/11/30 00:21:48;;;;;;;7.90;5.50;;;;;;;8.46;68.07;97233.94;24445;1360;3028690;-71
2021/11/30 00:24:17;;;;;;;6.60;5.30;;;;;;;8.35;68.37;97238.58;24465;1360;3054847;-69
2021/11/30 00:26:47;;;;;;;8.80;5.20;;;;;;;8.36;68.60;97242.85;24460;1360;3028446;-67
2021/11/30 00:29:16;;;;;;;6.00;4.10;;;;;;;8.87;67.75;97247.47;24400;1356;3026870;-64
2021/11/30 00:31:45;;;;;;;6.60;4.70;;;;;;;9.53;65.90;97261.45;24381;1359;3026517;-70
2021/11/30 00:34:14;;;;;;;9.00;5.70;;;;;;;9.45;66.32;97264.42;24416;1358;3026951;-65
2021/11/30 00:36:43;;;;;;;9.40;6.10;;;;;;;9.26;67.11;97267.86;24411;1360;3049049;-69
2021/11/30 00:39:13;;;;;;;7.60;6.50;;;;;;;9.06;67.79;97278.79;24505;1361;3026839;-71
2021/11/30 00:41:48;;;;;;;8.50;6.00;;;;;;;8.74;68.71;97286.00;24453;1357;3026702;-71
2021/11/30 00:44:21;;;;;;;7.60;5.70;;;;;;;8.24;69.30;97293.86;24489;1353;3068445;-68
2021/11/30 00:46:53;;;;;;;7.20;5.40;;;;;;;8.35;68.17;97302.34;24510;1362;3026407;-71
2021/11/30 00:49:23;;;;;;;7.00;5.40;;;;;;;8.22;68.12;97297.89;24533;1358;3027109;-71
2021/11/30 00:51:54;;;;;;;7.40;5.40;;;;;;;8.06;68.54;97301.33;24496;1360;3027002;-69
2021/11/30 00:54:23;;;;;;;7.10;5.30;;;;;;;7.86;69.48;97302.02;24446;1360;3026616;-67
2021/11/30 00:56:52;;;;;;;6.20;4.60;;;;;;;7.98;68.94;97306.77;24457;1361;3026724;-73
2021/11/30 00:59:27;;;;;;;5.80;4.10;;;;;;;8.15;68.90;97311.61;24493;1358;3026966;-68
2021/11/30 01:01:57;;;;;;;4.90;4.10;;;;;;;8.63;66.95;97307.88;24466;1358;3052393;-70
2021/11/30 01:04:27;;;;;;;6.60;4.40;;;;;;;8.78;66.48;97315.59;24435;1355;3027299;-72
2021/11/30 01:06:56;;;;;;;4.90;3.30;;;;;;;8.68;66.19;97323.80;24470;1355;3028748;-70
2021/11/30 01:09:25;;;;;;;7.20;4.80;;;;;;;8.60;65.89;97319.59;24428;1355;3028261;-67
2021/11/30 01:11:54;;;;;;;6.50;4.40;;;;;;;8.29;67.14;97325.78;24493;1360;3026558;-71
2021/11/30 01:14:43;;;;;;;7.70;5.10;;;;;;;8.00;68.24;97340.06;24458;1360;3049237;-71
2021/11/30 01:17:12;;;;;;;8.50;5.80;;;;;;;7.92;68.78;97351.83;24506;1359;3026803;-68
2021/11/30 01:19:42;;;;;;;8.00;5.40;;;;;;;7.78;69.48;97349.34;24462;1356;3070569;-69
2021/11/30 01:22:11;;;;;;;11.90;5.20;;;;;;;7.71;70.33;97353.88;24543;1359;3026433;-70
2021/11/30 01:24:41;;;;;;;9.70;5.50;;;;;;;8.38;69.11;97359.35;24434;1355;3052648;-73
2021/11/30 01:27:10;;;;;;;9.40;5.00;;;;;;;8.74;68.41;97368.45;24451;1360;3026908;-70
2021/11/30 01:29:39;;;;;;;8.40;6.50;;;;;;;8.79;67.75;97378.71;24433;1361;3055170;-64
2021/11/30 01:32:08;;;;;;;10.70;6.70;;;;;;;8.25;69.58;97387.30;24464;1360;3026789;-69
2021/11/30 01:34:37;;;;;;;7.80;5.60;;;;;;;8.15;69.48;97405.23;24446;1355;3026655;-72
2021/11/30 01:37:12;;;;;;;11.20;7.40;;;;;;;7.87;70.39;97398.85;24501;1351;3027361;-69
2021/11/30 01:39:42;;;;;;;8.70;5.60;;;;;;;7.61;69.96;97423.21;24529;1359;3051019;-66
2021/11/30 01:42:14;;;;;;;7.80;5.30;;;;;;;7.36;69.98;97414.96;24499;1363;3027280;-70
2021/11/30 01:44:50;;;;;;;6.80;3.40;;;;;;;7.10;69.89;97424.48;24508;1359;3026557;-66
2021/11/30 01:49:59;;;;;;;5.90;3.80;;;;;;;6.84;69.31;97439.73;24458;1356;3052181;-71
2021/11/30 01:52:28;;;;;;;3.60;3.10;;;;;;;6.72;68.78;97450.44;24441;1360;3027428;-65
2021/11/30 01:55:01;;;;;;;7.10;3.10;;;;;;;6.50;67.85;97458.16;24406;1363;3026132;-69
2021/11/30 01:57:30;;;;;;;4.50;2.70;;;;;;;6.35;67.94;97458.27;24434;1360;3029994;-71
2021/11/30 01:59:59;;;;;;;5.00;3.20;;;;;;;6.12;67.74;97459.95;24470;1361;3054451;-70
2021/11/30 02:02:28;;;;;;;3.30;2.60;;;;;;;5.82;68.12;97481.73;24430;1359;3026592;-68
2021/11/30 02:04:57;;;;;;;3.80;2.50;;;;;;;5.74;68.11;97475.05;24526;1356;3026683;-68
2021/11/30 02:07:34;;;;;;;3.70;2.50;;;;;;;5.64;68.23;97468.98;24472;1360;3058193;-64
2021/11/30 02:10:06;;;;;;;4.40;2.70;;;;;;;5.64;68.07;97476.60;24425;1358;3026457;-71
2021/11/30 02:12:36;;;;;;;5.30;3.30;;;;;;;5.49;68.50;97479.27;24431;1358;3052782;-70
2021/11/30 02:15:06;;;;;;;3.90;2.70;;;;;;;5.47;68.89;97484.12;24486;1357;3026933;-71
2021/11/30 02:17:36;;;;;;;3.50;2.50;;;;;;;5.56;68.33;97486.02;24435;1362;3027539;-69
2021/11/30 02:20:08;;;;;;;3.20;2.40;;;;;;;5.45;68.60;97487.73;24447;1359;3028128;-71
2021/11/30 02:22:38;;;;;;;3.50;2.90;;;;;;;5.41;68.49;97498.23;24484;1355;3026641;-70
2021/11/30 02:25:08;;;;;;;4.20;2.70;;;;;;;5.28;68.76;97504.16;24457;1355;3027863;-68
2021/11/30 02:27:37;;;;;;;3.20;2.40;;;;;;;5.23;69.01;97501.41;24449;1359;3026350;-68
2021/11/30 02:30:06;;;;;;;4.10;2.50;;;;;;;5.83;67.59;97503.40;24489;1361;3026375;-69
2021/11/30 02:32:35;;;;;;;3.80;2.60;;;;;;;6.36;65.26;97505.16;24424;1360;3067974;-69
2021/11/30 02:35:04;;;;;;;3.80;2.70;;;;;;;5.90;65.58;97516.77;24438;1355;3026496;-68
2021/11/30 02:37:43;;;;;;;4.90;3.20;;;;;;;5.74;65.81;97522.61;24475;1360;3052598;-73
2021/11/30 02:40:12;;;;;;;3.70;3.10;;;;;;;5.36;66.77;97516.96;24442;1360;3071361;-70
2021/11/30 02:42:41;;;;;;;5.60;3.30;;;;;;;5.13;67.46;97521.17;24460;1358;3027372;-70
2021/11/30 02:45:11;;;;;;;4.60;3.50;;;;;;;5.06;67.82;97516.96;24457;1360;3026772;-70
2021/11/30 02:47:40;;;;;;;5.00;3.40;;;;;;;5.07;67.85;97521.58;24488;1359;3026589;-68
2021/11/30 02:50:09;;;;;;;5.60;3.80;;;;;;;4.79;68.59;97519.70;24416;1359;3028888;-71
2021/11/30 02:52:38;;;;;;;8.20;4.30;;;;;;;4.68;69.09;97530.86;24433;1360;3054110;-70
2021/11/30 02:55:08;;;;;;;4.90;3.80;;;;;;;4.52;69.30;97546.82;24456;1354;3027421;-71
2021/11/30 02:57:37;;;;;;;6.60;4.40;;;;;;;4.44;69.59;97540.73;24460;1355;3026613;-66
2021/11/30 03:00:07;;;;;;;4.70;3.60;;;;;;;4.38;69.82;97548.44;24437;1359;3026760;-68
2021/11/30 03:02:37;;;;;;;7.40;4.20;;;;;;;4.44;69.76;97543.38;24414;1351;3029647;-70
2021/11/30 03:05:07;;;;;;;5.20;4.00;;;;;;;4.42;69.14;97562.89;24474;1359;3026657;-68
2021/11/30 03:07:38;;;;;;;4.50;3.80;;;;;;;4.20;69.55;97572.77;24479;1354;3027282;-71
2021/11/30 03:10:15;;;;;;;5.50;3.90;;;;;;;4.11;69.82;97553.27;24479;1360;3027129;-64
2021/11/30 03:12:45;;;;;;;3.90;3.30;;;;;;;4.22;69.78;97556.23;24494;1359;3055171;-69
2021/11/30 03:15:16;;;;;;;4.50;3.70;;;;;;;4.74;68.36;97538.92;24484;1357;3027521;-71
2021/11/30 03:17:47;;;;;;;6.40;4.90;;;;;;;4.87;67.56;97527.09;24475;1361;3028231;-70
2021/11/30 03:20:16;;;;;;;6.40;4.10;;;;;;;5.03;67.32;97533.67;24419;1357;3028716;-74
2021/11/30 03:22:47;;;;;;;5.90;3.50;;;;;;;5.04;67.16;97531.19;24424;1354;3026322;-68
2021/11/30 03:25:16;;;;;;;4.40;3.40;;;;;;;4.99;67.14;97522.86;24434;1355;3028468;-72
2021/11/30 03:27:47;;;;;;;4.50;3.70;;;;;;;4.54;68.35;97548.11;24490;1359;3027479;-68
2021/11/30 03:30:18;;;;;;;6.70;4.60;;;;;;;4.49;68.60;97527.37;24489;1358;3026881;-67
2021/11/30 03:35:38;;;;;;;6.50;4.80;;;;;;;4.09;69.87;97547.69;24450;1362;3053910;-69
2021/11/30 03:38:07;;;;;;;7.60;5.20;;;;;;;4.00;70.10;97564.58;24505;1361;3026271;-68
2021/11/30 03:40:37;;;;;;;7.20;4.90;;;;;;;3.94;70.88;97558.70;24448;1356;3027325;-71
2021/11/30 03:43:06;;;;;;;7.50;5.10;;;;;;;3.97;70.95;97567.21;24452;1358;3027055;-70
2021/11/30 03:45:35;;;;;;;6.50;4.30;;;;;;;4.68;69.22;97559.82;24416;1358;3058197;-72
2021/11/30 03:48:05;;;;;;;6.30;4.40;;;;;;;5.09;67.73;97558.45;24424;1357;3030966;-71
2021/11/30 03:50:34;;;;;;;6.80;4.50;;;;;;;4.83;67.59;97563.83;24467;1354;3053114;-70
2021/11/30 03:53:03;;;;;;;6.60;4.20;;;;;;;4.65;67.93;97570.92;24443;1354;3026601;-73
2021/11/30 03:55:32;;;;;;;5.20;3.80;;;;;;;4.47;68.06;97579.19;24416;1360;3056277;-72
2021/11/30 03:58:01;;;;;;;5.80;4.00;;;;;;;4.15;68.55;97598.11;24412;1354;3026241;-70
2021/11/30 04:00:30;;;;;;;5.30;3.60;;;;;;;4.18;68.25;97607.58;24442;1359;3048687;-71
2021/11/30 04:02:59;;;;;;;4.70;3.80;;;;;;;4.06;68.62;97617.58;24432;1361;3026392;-65
2021/11/30 04:05:28;;;;;;;5.10;4.10;;;;;;;3.98;68.81;97627.38;24470;1358;3027868;-72
2021/11/30 04:07:57;;;;;;;6.40;4.20;;;;;;;4.04;68.57;97620.44;24492;1357;3048399;-67
2021/11/30 04:10:27;;;;;;;5.80;4.10;;;;;;;4.09;68.27;97630.36;24484;1355;3026693;-64
2021/11/30 04:12:57;;;;;;;5.30;4.30;;;;;;;4.00;68.51;97636.30;24393;1360;3069023;-69
2021/11/30 04:15:26;;;;;;;5.10;3.90;;;;;;;3.97;68.43;97640.80;24531;1358;3026704;-72
2021/11/30 04:17:56;;;;;;;5.70;4.50;;;;;;;3.95;68.59;97644.57;24467;1357;3054201;-68
2021/11/30 04:20:25;;;;;;;6.00;4.40;;;;;;;3.85;69.11;97651.74;24445;1354;3026622;-71
2021/11/30 04:22:54;;;;;;;5.60;4.00;;;;;;;3.83;68.92;97657.45;24445;1361;3054748;-72
2021/11/30 04:25:23;;;;;;;6.30;4.30;;;;;;;3.76;69.18;97665.31;24472;1355;3026898;-74
2021/11/30 04:27:52;;;;;;;6.70;4.00;;;;;;;3.80;69.00;97661.43;24438;1354;3049268;-73
2021/11/30 04:30:21;;;;;;;5.00;3.20;;;;;;;3.78;68.89;97661.22;24502;1360;3026162;-72
2021/11/30 04:32:52;;;;;;;6.30;4.00;;;;;;;3.78;68.23;97672.11;24492;1354;3058787;-73
2021/11/30 04:35:21;;;;;;;4.50;3.00;;;;;;;3.61;68.04;97680.42;24494;1357;3026538;-64
2021/11/30 04:37:50;;;;;;;5.70;4.20;;;;;;;3.67;67.52;97686.98;24488;1357;3028073;-68
2021/11/30 04:40:20;;;;;;;4.10;3.30;;;;;;;3.61;67.65;97674.31;24440;1354;3058699;-67
2021/11/30 04:42:49;;;;;;;4.90;4.00;;;;;;;3.57;67.83;97692.27;24444;1354;3029340;-69
2021/11/30 04:45:43;;;;;;;4.30;3.40;;;;;;;3.49;68.00;97688.74;24451;1357;3051040;-72
2021/11/30 04:48:14;;;;;;;5.40;4.30;;;;;;;3.46;68.24;97679.38;24503;1357;3060167;-69
2021/11/30 04:50:47;;;;;;;5.60;4.20;;;;;;;3.41;68.62;97682.13;24456;1354;3026335;-72
2021/11/30 04:53:25;;;;;;;6.80;4.10;;;;;;;3.42;68.75;97687.25;24463;1354;3055516;-71
2021/11/30 04:55:54;;;;;;;5.30;4.10;;;;;;;3.52;68.27;97708.48;24450;1354;3026816;-66
2021/11/30 04:58:23;;;;;;;7.50;4.80;;;;;;;3.44;68.38;97685.78;24461;1354;3027698;-67
2021/11/30 05:00:52;;;;;;;4.40;3.50;;;;;;;3.46;68.37;97695.15;24497;1359;3026851;-74
2021/11/30 05:03:21;;;;;;;5.60;4.40;;;;;;;3.46;68.09;97688.55;24476;1354;3051439;-71
2021/11/30 05:05:50;;;;;;;6.10;4.70;;;;;;;3.34;67.91;97681.85;24492;1357;3026916;-68
2021/11/30 05:08:20;;;;;;;5.10;3.40;;;;;;;3.26;68.67;97682.14;24471;1358;3055946;-65
2021/11/30 05:10:49;;;;;;;5.10;4.00;;;;;;;3.27;68.78;97696.30;24484;1354;3027074;-72
2021/11/30 05:13:38;;;;;;;5.90;3.80;;;;;;;3.55;67.92;97721.43;24431;1354;3049455;-69
2021/11/30 05:16:07;;;;;;;6.40;4.20;;;;;;;3.79;66.97;97702.85;24503;1351;3030102;-69
2021/11/30 05:18:39;;;;;;;5.20;3.90;;;;;;;3.94;66.73;97696.79;24419;1361;3054318;-72
2021/11/30 05:21:08;;;;;;;6.50;3.90;;;;;;;3.77;66.76;97683.77;24449;1354;3027027;-71
2021/11/30 05:23:38;;;;;;;7.70;4.20;;;;;;;3.69;67.08;97677.02;24467;1354;3027469;-68
2021/11/30 05:26:08;;;;;;;4.80;4.00;;;;;;;3.54;67.53;97679.98;24459;1357;3026968;-65
2021/11/30 05:28:39;;;;;;;7.40;5.30;;;;;;;3.53;67.44;97684.19;24455;1354;3027548;-66
2021/11/30 05:31:09;;;;;;;6.00;5.00;;;;;;;3.27;68.43;97694.39;24453;1358;3027212;-73
2021/11/30 05:33:38;;;;;;;7.70;5.70;;;;;;;3.32;68.64;97698.95;24502;1354;3028856;-72
2021/11/30 05:36:07;;;;;;;7.80;5.60;;;;;;;3.29;68.88;97695.49;24412;1354;3027788;-72
2021/11/30 05:38:37;;;;;;;6.80;4.80;;;;;;;3.28;68.87;97696.78;24428;1358;3050277;-72
2021/11/30 05:41:06;;;;;;;6.40;4.60;;;;;;;3.14;69.26;97720.40;24443;1354;3028108;-69
2021/11/30 05:43:36;;;;;;;5.90;4.50;;;;;;;3.17;69.41;97729.58;24500;1354;3027485;-67
2021/11/30 05:46:06;;;;;;;7.40;5.70;;;;;;;3.19;69.47;97734.98;24473;1357;3026662;-69
2021/11/30 05:48:36;;;;;;;7.10;5.10;;;;;;;3.11;69.98;97743.04;24436;1361;3051682;-69
2021/11/30 05:51:06;;;;;;;5.60;3.40;;;;;;;3.87;68.67;97740.34;24448;1354;3026402;-70
2021/11/30 05:53:35;;;;;;;8.00;4.50;;;;;;;4.42;66.59;97740.73;24506;1359;3026918;-70
2021/11/30 05:56:07;;;;;;;5.30;3.60;;;;;;;4.37;65.94;97746.64;24439;1358;3054360;-69
2021/11/30 05:58:39;;;;;;;7.00;4.60;;;;;;;4.33;65.29;97745.80;24428;1357;3026559;-71
2021/11/30 06:01:20;;;;;;;8.00;5.00;;;;;;;3.79;67.05;97762.80;24484;1357;3026977;-69
2021/11/30 06:06:18;;;;;;;6.60;4.60;;;;;;;3.48;68.11;97761.71;24409;1354;3029156;-75
2021/11/30 06:08:47;;;;;;;8.00;5.00;;;;;;;3.39;68.26;97764.15;24417;1354;3028478;-72
2021/11/30 06:11:17;;;;;;;8.80;5.60;;;;;;;3.27;68.75;97764.13;24462;1354;3053001;-68
2021/11/30 06:13:51;;;;;;;12.20;6.00;;;;;;;3.19;69.21;97758.52;24500;1354;3052598;-73
2021/11/30 06:16:21;;;;;;;7.90;5.70;;;;;;;3.20;68.82;97757.60;24468;1354;3026809;-67
2021/11/30 06:18:50;;;;;;;7.20;3.50;;;;;;;3.20;68.91;97746.89;24492;1354;3028311;-66
2021/11/30 06:21:19;;;;;;;7.80;4.90;;;;;;;3.18;68.76;97748.05;24481;1354;3052790;-72
2021/11/30 06:23:48;;;;;;;7.00;4.60;;;;;;;3.09;68.93;97747.14;24461;1354;3026957;-68
2021/11/30 06:26:17;;;;;;;7.30;5.30;;;;;;;3.04;69.18;97749.69;24453;1354;3049549;-69
2021/11/30 06:28:47;;;;;;;8.90;5.60;;;;;;;2.97;69.38;97759.98;24427;1354;3027569;-71
2021/11/30 06:31:17;;;;;;;9.80;6.40;;;;;;;3.00;69.12;97768.11;24445;1354;3059032;-69
2021/11/30 06:33:46;;;;;;;7.40;5.20;;;;;;;2.93;69.42;97771.41;24449;1355;3026767;-73
2021/11/30 06:36:15;;;;;;;6.50;4.80;;;;;;;3.00;69.12;97775.86;24479;1354;3026622;-73
2021/11/30 06:38:44;;;;;;;9.00;5.70;;;;;;;3.09;69.22;97767.23;24436;1361;3056349;-73
2021/11/30 06:41:13;;;;;;;6.60;4.70;;;;;;;3.62;68.29;97763.96;24505;1355;3027107;-76
2021/11/30 06:43:43;;;;;;;6.20;4.10;;;;;;;4.37;66.05;97774.52;24433;1360;3054236;-70
2021/11/30 06:46:13;;;;;;;7.60;5.40;;;;;;;4.39;64.79;97778.04;24522;1355;3026756;-71
2021/11/30 06:48:41;;;;;;;12.10;6.40;;;;;;;3.92;65.42;97780.23;24413;1353;3027225;-72
2021/11/30 06:51:10;;;;;;;7.70;5.40;;;;;;;3.76;65.78;97795.89;24498;1354;3050854;-67
2021/11/30 06:53:39;;;;;;;8.10;5.20;;;;;;;3.76;65.74;97795.02;24474;1357;3026593;-70
2021/11/30 06:56:10;;;;;;;10.60;6.50;;;;;;;3.72;66.11;97798.34;24451;1357;3053915;-71
2021/11/30 06:58:39;;;;;;;10.30;6.40;;;;;;;3.67;66.33;97795.03;24438;1357;3027664;-76
2021/11/30 07:01:10;;;;;;;7.20;4.80;;;;;;;3.62;65.96;97800.50;24433;1353;3026960;-68
2021/11/30 07:03:44;;;;;;;8.80;5.50;;;;;;;3.52;66.26;97798.52;24492;1357;3051654;-70
2021/11/30 07:09:21;;;;;;;8.80;6.50;;;;;;;3.35;67.58;97796.91;24384;1367;3059122;-73
2021/11/30 07:11:57;;;;;;;10.50;5.50;;;;;;;3.44;67.04;97798.30;24462;1357;3026418;-70
2021/11/30 07:14:27;;;;;;;9.20;6.40;;;;;;;3.46;66.70;97802.65;24471;1357;3055709;-71
2021/11/30 07:16:56;;;;;;;8.70;6.00;;;;;;;3.40;67.25;97809.27;24484;1361;3029405;-70
2021/11/30 07:19:28;;;;;;;8.90;6.20;;;;;;;3.39;66.96;97814.63;24471;1357;3027174;-71
2021/11/30 07:21:57;;;;;;;11.20;6.50;;;;;;;3.32;67.38;97817.69;24426;1354;3026776;-71
2021/11/30 07:24:27;;;;;;;8.90;4.90;;;;;;;3.38;67.05;97836.69;24419;1354;3026502;-71
2021/11/30 07:26:56;;;;;;;9.80;5.60;;;;;;;3.33;66.65;97839.92;24462;1354;3028984;-69
2021/11/30 07:29:25;;;;;;;8.20;4.80;;;;;;;3.30;67.10;97845.13;24434;1361;3051455;-70
2021/11/30 07:31:54;;;;;;;7.00;5.40;;;;;;;3.34;66.92;97846.27;24449;1357;3026367;-70
2021/11/30 07:34:23;;;;;;;9.20;5.80;;;;;;;3.45;66.62;97829.41;24512;1357;3026298;-71
2021/11/30 07:36:53;;;;;;;8.40;5.60;;;;;;;3.53;66.45;97838.61;24466;1354;3048679;-74
2021/11/30 07:39:22;;;;;;;11.00;6.60;;;;;;;3.53;65.89;97850.20;24447;1361;3026488;-67
2021/11/30 07:41:52;;;;;;;10.50;4.50;;;;;;;3.57;65.64;97846.02;24438;1361;3069518;-71
2021/11/30 07:44:21;;;;;;;9.10;5.50;;;;;;;3.59;65.58;97838.61;24432;1354;3026991;-69
2021/11/30 07:46:50;;;;;;;11.20;6.40;;;;;;;3.57;65.39;97841.52;24502;1360;3055102;-70
2021/11/30 07:49:20;;;;;;;9.30;5.60;;;;;;;3.60;65.27;97836.84;24476;1354;3026807;-71
2021/11/30 07:51:49;;;;;;;12.00;5.80;;;;;;;3.61;65.05;97820.83;24497;1357;3052673;-73
2021/11/30 07:54:18;;;;;;;10.40;5.60;;;;;;;3.69;65.05;97827.61;24518;1354;3026328;-72
2021/11/30 07:56:48;;;;;;;6.60;4.20;;;;;;;3.77;64.78;97820.77;24430;1357;3048764;-70
2021/11/30 07:59:19;;;;;;;6.10;3.90;;;;;;;3.80;64.32;97828.36;24441;1355;3028562;-70
2021/11/30 08:01:48;;;;;;;11.70;5.60;;;;;;;3.93;64.15;97826.08;24461;1355;3027002;-71
2021/11/30 08:04:19;;;;;;;8.00;5.60;;;;;;;3.87;64.99;97823.80;24419;1357;3026080;-68
2021/11/30 08:06:50;;;;;;;9.50;4.50;;;;;;;3.99;64.25;97835.61;24435;1357;3026651;-72
2021/11/30 08:09:19;;;;;;;8.20;5.40;;;;;;;4.04;63.96;97822.48;24230;1353;3386374;-72
2021/11/30 08:11:50;;;;;;;9.00;5.20;;;;;;;4.05;64.02;97816.86;24475;1354;3071062;-72
2021/11/30 08:14:19;;;;;;;9.50;5.80;;;;;;;3.96;63.93;97815.86;24475;1354;3028557;-74
2021/11/30 08:16:48;;;;;;;7.30;4.70;;;;;;;3.99;63.84;97819.95;24531;1349;3026713;-74
2021/11/30 08:19:17;;;;;;;8.20;4.90;;;;;;;4.05;63.13;97813.91;24495;1355;3067586;-72
2021/11/30 08:21:46;;;;;;;10.30;6.10;;;;;;;4.05;63.59;97800.89;24472;1357;3026516;-73
2021/11/30 08:24:15;;;;;;;8.50;5.50;;;;;;;4.16;63.73;97796.58;24417;1357;3053534;-66
2021/11/30 08:26:44;;;;;;;9.30;5.80;;;;;;;4.26;62.77;97798.24;24416;1354;3026518;-73
2021/11/30 08:29:14;;;;;;;8.10;5.10;;;;;;;4.15;62.96;97798.40;24531;1355;3053313;-69
2021/11/30 08:31:44;;;;;;;9.20;4.90;;;;;;;4.39;62.26;97796.26;24482;1357;3026929;-67
2021/11/30 08:34:13;;;;;;;7.90;4.70;;;;;;;4.37;61.97;97795.67;24409;1355;3026658;-71
2021/11/30 08:36:42;;;;;;;6.90;4.50;;;;;;;4.47;60.70;97795.79;24419;1355;3052174;-71
2021/11/30 08:39:12;;;;;;;7.30;5.00;;;;;;;4.39;61.51;97803.15;24481;1355;3026636;-73
2021/11/30 08:41:41;;;;;;;11.70;6.30;;;;;;;4.40;61.87;97808.52;24455;1357;3028823;-71
2021/11/30 08:44:10;;;;;;;7.60;4.90;;;;;;;4.38;61.69;97806.70;24360;1360;3052883;-73
2021/11/30 08:47:11;;;;;;;13.30;6.60;;;;;;;4.54;61.26;97809.50;24440;1357;3027493;-70
2021/11/30 08:49:40;;;;;;;11.20;6.60;;;;;;;4.53;61.92;97823.29;24445;1357;3052908;-67
2021/11/30 08:52:12;;;;;;;6.40;4.50;;;;;;;4.45;61.54;97822.40;24484;1355;3026497;-69
2021/11/30 08:54:42;;;;;;;14.70;6.70;;;;;;;4.58;61.20;97818.66;24457;1360;3056271;-72
2021/11/30 08:57:11;;;;;;;8.20;6.20;;;;;;;4.60;61.48;97816.13;24440;1355;3029638;-68
2021/11/30 08:59:41;;;;;;;10.00;6.20;;;;;;;4.63;61.60;97817.11;24462;1356;3026453;-67
2021/11/30 09:02:11;;;;;;;10.30;6.00;;;;;;;4.77;60.62;97810.36;24439;1360;3026450;-67
2021/11/30 09:04:40;;;;;;;8.70;6.40;;;;;;;4.78;60.72;97803.38;24406;1358;3026528;-71
2021/11/30 09:07:09;;;;;;;9.80;6.40;;;;;;;4.82;60.82;97790.79;24422;1355;3027513;-70
2021/11/30 09:09:38;;;;;;;5.50;4.00;;;;;;;4.89;60.76;97790.03;24459;1355;3049261;-72
2021/11/30 09:12:08;;;;;;;7.30;5.10;;;;;;;4.91;59.96;97806.00;24458;1356;3028102;-68
2021/11/30 09:14:37;;;;;;;7.70;5.30;;;;;;;4.75;60.09;97800.12;24475;1356;3052881;-68
2021/11/30 09:17:07;;;;;;;6.30;4.60;;;;;;;4.68;60.12;97802.75;24398;1362;3028092;-70
2021/11/30 09:19:36;;;;;;;7.40;4.00;;;;;;;4.68;59.59;97801.55;24389;1361;3048449;-70
2021/11/30 09:22:05;;;;;;;7.90;4.80;;;;;;;4.82;59.68;97797.17;24391;1354;3026440;-68
2021/11/30 09:24:34;;;;;;;7.80;4.20;;;;;;;4.82;59.78;97794.09;24397;1357;3059087;-69
2021/11/30 09:27:03;;;;;;;5.80;4.00;;;;;;;4.93;59.19;97788.33;24420;1361;3026729;-71
2021/11/30 09:29:32;;;;;;;7.20;4.60;;;;;;;4.98;59.08;97783.50;24445;1358;3053877;-69
2021/11/30 09:32:02;;;;;;;8.30;5.40;;;;;;;5.11;59.37;97777.14;24406;1357;3026592;-68
2021/11/30 09:34:31;;;;;;;8.90;5.10;;;;;;;5.12;59.30;97772.59;24446;1357;3055052;-69
2021/11/30 09:37:00;;;;;;;8.10;4.70;;;;;;;5.11;59.47;97772.42;24451;1355;3026731;-70
2021/11/30 09:39:30;;;;;;;8.60;5.60;;;;;;;5.00;59.35;97773.16;24443;1359;3051626;-68
2021/11/30 09:41:59;;;;;;;9.00;5.90;;;;;;;5.19;59.18;97766.57;24464;1352;3026133;-69
2021/11/30 09:44:28;;;;;;;8.70;5.60;;;;;;;5.07;59.17;97774.99;24427;1360;3068084;-73
2021/11/30 09:47:01;;;;;;;8.30;4.80;;;;;;;5.05;58.98;97764.88;24491;1357;3028586;-69
2021/11/30 09:49:30;;;;;;;6.30;4.30;;;;;;;5.02;59.14;97765.06;24466;1357;3029574;-67
2021/11/30 09:52:00;;;;;;;5.90;3.70;;;;;;;4.77;59.30;97769.91;24417;1358;3026195;-71
2021/11/30 09:54:29;;;;;;;7.50;4.80;;;;;;;4.82;59.04;97765.33;24465;1357;3026848;-70
2021/11/30 09:56:58;;;;;;;9.20;4.80;;;;;;;4.99;58.91;97767.83;24517;1359;3054834;-71
2021/11/30 09:59:27;;;;;;;6.30;5.00;;;;;;;4.86;59.48;97752.38;24477;1357;3026718;-69
2021/11/30 10:01:56;;;;;;;7.80;4.70;;;;;;;5.02;58.68;97752.41;24522;1358;3026092;-70
2021/11/30 10:04:26;;;;;;;7.40;4.40;;;;;;;4.94;59.02;97750.32;24461;1354;3054493;-70
2021/11/30 10:06:55;;;;;;;9.10;5.60;;;;;;;4.92;59.21;97743.27;24540;1359;3026709;-69
2021/11/30 10:09:24;;;;;;;6.70;4.30;;;;;;;4.89;59.68;97754.62;24452;1357;3048232;-67
2021/11/30 10:11:55;;;;;;;8.30;5.10;;;;;;;5.06;59.15;97744.27;24454;1355;3027070;-69
2021/11/30 10:14:38;;;;;;;7.50;5.40;;;;;;;5.06;59.25;97748.13;24476;1359;3027414;-66
2021/11/30 10:17:22;;;;;;;7.70;4.50;;;;;;;5.09;59.18;97747.94;24457;1354;3056767;-70
2021/11/30 10:19:55;;;;;;;7.90;4.40;;;;;;;5.12;58.98;97749.14;24457;1355;3049608;-70
2021/11/30 10:22:53;;;;;;;9.00;5.90;;;;;;;4.95;59.13;97752.83;24409;1357;3026419;-68
2021/11/30 10:25:27;;;;;;;6.20;4.80;;;;;;;5.00;59.21;97765.20;24479;1359;3051169;-65
2021/11/30 10:28:05;;;;;;;6.40;4.30;;;;;;;5.05;59.03;97769.32;24500;1354;3068787;-68
2021/11/30 10:30:38;;;;;;;8.50;4.90;;;;;;;5.01;58.94;97762.52;24437;1357;3051816;-69
2021/11/30 10:33:10;;;;;;;9.20;5.70;;;;;;;4.79;59.61;97752.33;24498;1355;3026832;-67
2021/11/30 10:35:39;;;;;;;6.90;4.80;;;;;;;4.90;59.38;97736.15;24404;1354;3026682;-68
2021/11/30 10:38:08;;;;;;;6.10;4.00;;;;;;;4.98;58.82;97746.55;24372;1357;3028559;-67
2021/11/30 10:40:39;;;;;;;6.80;4.10;;;;;;;4.95;58.73;97745.52;24452;1357;3054129;-69
2021/11/30 10:43:09;;;;;;;7.60;4.70;;;;;;;4.94;59.07;97745.75;24401;1357;3029349;-70
2021/11/30 10:45:43;;;;;;;4.50;3.20;;;;;;;4.85;59.17;97750.50;24444;1355;3026334;-68
2021/11/30 10:48:18;;;;;;;6.20;3.80;;;;;;;4.77;59.28;97758.34;24453;1362;3052932;-69
2021/11/30 10:50:52;;;;;;;9.90;4.30;;;;;;;4.99;59.12;97764.23;24437;1359;3056088;-69
2021/11/30 10:53:31;;;;;;;6.80;4.40;;;;;;;5.00;59.35;97764.83;24401;1361;3055097;-69
2021/11/30 10:56:05;;;;;;;7.90;4.30;;;;;;;5.07;58.98;97766.66;24420;1362;3071292;-70
2021/11/30 10:58:37;;;;;;;5.00;3.90;;;;;;;5.04;59.38;97769.80;24473;1358;3049255;-68
2021/11/30 11:01:08;;;;;;;6.60;4.20;;;;;;;5.04;59.39;97774.61;24465;1357;3026636;-69
2021/11/30 11:03:37;;;;;;;5.20;4.20;;;;;;;5.04;59.48;97775.31;24445;1357;3026574;-70
2021/11/30 11:08:56;;;;;;;8.60;5.90;;;;;;;4.83;59.89;97769.23;24438;1355;3054424;-67
2021/11/30 11:11:45;;;;;;;6.70;5.20;;;;;;;4.76;60.47;97772.41;24414;1360;3056007;-68
2021/11/30 11:14:17;;;;;;;7.70;5.30;;;;;;;4.72;60.60;97772.17;24459;1361;3026583;-67
2021/11/30 11:16:53;;;;;;;7.60;4.90;;;;;;;4.94;60.16;97767.64;24428;1357;3026539;-67
2021/11/30 11:19:42;;;;;;;8.00;4.60;;;;;;;4.76;60.56;97758.71;24477;1353;3053363;-70
2021/11/30 11:22:15;;;;;;;6.80;4.10;;;;;;;4.70;60.96;97757.77;24530;1359;3053691;-70
2021/11/30 11:24:46;;;;;;;6.60;4.00;;;;;;;4.71;60.66;97755.39;24459;1355;3026412;-68
2021/11/30 11:27:17;;;;;;;7.30;4.40;;;;;;;4.58;60.02;97748.92;24471;1357;3026537;-69
2021/11/30 11:29:46;;;;;;;6.30;4.20;;;;;;;4.67;60.12;97745.29;24504;1355;3027630;-67
2021/11/30 11:32:15;;;;;;;6.30;4.40;;;;;;;4.76;59.94;97740.70;24455;1357;3026455;-68
2021/11/30 11:34:45;;;;;;;7.40;4.50;;;;;;;4.61;60.32;97737.84;24449;1355;3051363;-65
2021/11/30 11:37:14;;;;;;;6.10;4.20;;;;;;;4.63;60.57;97729.73;25243;1355;3026345;-69
2021/11/30 11:39:43;;;;;;;8.60;5.70;;;;;;;4.66;60.41;97731.05;24500;1357;3026320;-71
2021/11/30 11:42:14;;;;;;;9.40;5.50;;;;;;;4.61;60.45;97733.86;24425;1357;3050690;-71
2021/11/30 11:44:43;;;;;;;8.00;5.30;;;;;;;4.70;60.10;97727.94;24522;1355;3026791;-68
2021/11/30 11:47:18;;;;;;;8.80;5.60;;;;;;;4.84;59.77;97719.05;24502;1359;3026433;-71
2021/11/30 11:49:49;;;;;;;7.60;5.20;;;;;;;4.79;59.75;97713.45;24421;1362;3052160;-66
2021/11/30 11:52:22;;;;;;;10.60;6.10;;;;;;;4.79;59.84;97706.52;24473;1355;3026715;-72
2021/11/30 11:55:14;;;;;;;7.50;5.20;;;;;;;4.88;59.82;97710.42;24461;1357;3053708;-70